Time;durP1;ratioP1;P1;durP2;ratioP2;P2;SDS_P1;SDS_P2;PMS_P1;PMS_P2;Temp;Humidity;BMP_temperature;BMP_pressure;BME280_temperature;BME280_humidity;BME280_pressure;Samples;Min_cycle;Max_cycle;Signal;HPM_P1;HPM_P2
2021/04/22 04:12:54;;;;;;;1.20;1.20;;;4.80;95.30;;;;;;4895830;29;20621;-76
2021/04/22 04:15:21;;;;;;;1.10;1.10;;;4.70;95.60;;;;;;4897197;29;20254;-75
2021/04/22 04:17:48;;;;;;;1.23;1.23;;;4.70;95.70;;;;;;4897572;29;20211;-75
2021/04/22 04:20:16;;;;;;;1.27;1.27;;;4.70;96.00;;;;;;4897751;29;20250;-75
2021/04/22 04:22:43;;;;;;;1.10;1.10;;;4.70;96.20;;;;;;4897322;29;20234;-75
2021/04/22 04:25:11;;;;;;;1.30;1.30;;;4.80;96.00;;;;;;4897755;29;20767;-76
2021/04/22 04:27:38;;;;;;;1.20;1.20;;;4.80;96.10;;;;;;4897549;29;20207;-75
2021/04/22 04:30:09;;;;;;;1.30;1.30;;;4.80;96.00;;;;;;4897439;29;20259;-76
2021/04/22 04:32:37;;;;;;;1.17;1.17;;;4.80;96.40;;;;;;4897396;29;20207;-76
2021/04/22 04:35:05;;;;;;;1.17;1.17;;;4.80;96.50;;;;;;4897365;29;20203;-76
2021/04/22 04:37:32;;;;;;;1.40;1.40;;;4.80;96.50;;;;;;4897379;29;20259;-75
2021/04/22 04:39:59;;;;;;;1.10;1.10;;;4.80;96.60;;;;;;4897205;29;20211;-76
2021/04/22 04:42:25;;;;;;;1.10;1.10;;;4.80;96.80;;;;;;4896718;29;20274;-76
2021/04/22 04:44:52;;;;;;;1.10;1.10;;;4.80;96.90;;;;;;4896447;29;20214;-77
2021/04/22 04:47:20;;;;;;;1.10;1.10;;;4.70;96.60;;;;;;4889830;29;20724;-77
2021/04/22 04:49:47;;;;;;;1.30;1.30;;;5.00;97.00;;;;;;4898398;29;20203;-77
2021/04/22 04:52:14;;;;;;;1.10;1.10;;;5.10;96.60;;;;;;4897206;29;20224;-76
2021/04/22 04:54:41;;;;;;;1.20;1.20;;;5.00;96.50;;;;;;4897222;29;20211;-77
2021/04/22 04:57:08;;;;;;;1.27;1.27;;;4.90;97.10;;;;;;4897213;29;20207;-76
2021/04/22 04:59:35;;;;;;;1.50;1.50;;;4.90;96.90;;;;;;4898677;29;20214;-76
2021/04/22 05:02:03;;;;;;;1.30;1.30;;;5.00;96.60;;;;;;4897719;29;20230;-76
2021/04/22 05:04:30;;;;;;;1.10;1.10;;;5.00;96.80;;;;;;4898486;29;20275;-76
2021/04/22 05:06:57;;;;;;;1.20;1.20;;;5.00;97.00;;;;;;4893824;29;20672;-76
2021/04/22 05:09:24;;;;;;;1.33;1.33;;;5.00;97.20;;;;;;4896307;29;20210;-76
2021/04/22 05:11:51;;;;;;;1.30;1.30;;;5.00;97.50;;;;;;4897210;29;20235;-76
2021/04/22 05:14:18;;;;;;;1.07;1.07;;;5.00;97.20;;;;;;4901918;29;20219;-78
2021/04/22 05:16:45;;;;;;;1.10;1.10;;;5.00;97.40;;;;;;4900123;29;20212;-77
2021/04/22 05:19:12;;;;;;;1.10;1.10;;;5.10;97.40;;;;;;4901463;29;20211;-77
2021/04/22 05:21:40;;;;;;;1.37;1.37;;;5.10;97.30;;;;;;4899188;29;20287;-77
2021/04/22 05:24:08;;;;;;;1.20;1.20;;;5.10;97.20;;;;;;4899254;29;20263;-77
2021/04/22 05:26:35;;;;;;;1.00;1.00;;;5.10;97.20;;;;;;4901266;29;20617;-77
2021/04/22 05:29:02;;;;;;;1.30;1.30;;;5.10;97.60;;;;;;4899378;29;20215;-76
2021/04/22 05:31:29;;;;;;;1.10;1.10;;;5.20;97.70;;;;;;4900326;29;20231;-75
2021/04/22 05:33:56;;;;;;;1.37;1.37;;;5.20;97.30;;;;;;4900977;29;20566;-74
2021/04/22 05:36:23;;;;;;;0.90;0.90;;;5.30;97.70;;;;;;4900728;29;20207;-77
2021/04/22 05:38:51;;;;;;;1.27;1.27;;;5.50;97.30;;;;;;4901515;29;20211;-78
2021/04/22 05:41:18;;;;;;;1.23;1.23;;;5.60;97.10;;;;;;4901357;29;20235;-75
2021/04/22 05:43:45;;;;;;;1.23;1.23;;;5.60;96.50;;;;;;4901692;29;20208;-77
2021/04/22 05:46:12;;;;;;;1.10;1.10;;;5.70;96.30;;;;;;4901489;29;20238;-76
2021/04/22 05:48:39;;;;;;;1.10;1.10;;;5.80;96.40;;;;;;4901912;29;20218;-77
2021/04/22 05:51:07;;;;;;;1.20;1.20;;;5.90;95.00;;;;;;4900521;29;20238;-75
2021/04/22 05:53:34;;;;;;;1.10;1.10;;;6.00;95.40;;;;;;4900828;29;20657;-75
2021/04/22 05:56:03;;;;;;;1.10;1.10;;;6.00;95.20;;;;;;4900035;29;20275;-76
2021/04/22 05:58:30;;;;;;;1.10;1.10;;;6.00;95.10;;;;;;4899815;29;20211;-76
2021/04/22 06:00:57;;;;;;;0.80;0.80;;;5.90;95.10;;;;;;4898479;29;20295;-76
2021/04/22 06:03:24;;;;;;;1.00;1.00;;;6.20;94.60;;;;;;4900479;29;20267;-76
2021/04/22 06:05:51;;;;;;;1.10;1.10;;;6.20;94.70;;;;;;4899292;29;20207;-76
2021/04/22 06:08:18;;;;;;;1.10;1.10;;;6.50;94.10;;;;;;4900713;29;20211;-76
2021/04/22 06:10:45;;;;;;;1.10;1.10;;;6.50;93.40;;;;;;4900205;29;20645;-75
2021/04/22 06:13:13;;;;;;;1.10;1.10;;;6.40;93.40;;;;;;4900115;29;20215;-76
2021/04/22 06:15:40;;;;;;;1.30;1.30;;;6.50;93.50;;;;;;4899967;29;20652;-75
2021/04/22 06:18:08;;;;;;;1.10;1.10;;;6.50;92.60;;;;;;4900373;29;20263;-76
2021/04/22 06:20:35;;;;;;;1.10;1.10;;;6.50;92.60;;;;;;4899797;29;20303;-76
2021/04/22 06:23:21;;;;;;;1.00;1.00;;;6.50;93.10;;;;;;4899648;29;20231;-76
2021/04/22 06:25:48;;;;;;;0.83;0.83;;;6.60;92.90;;;;;;4900120;29;20207;-76
2021/04/22 06:28:15;;;;;;;1.03;1.03;;;6.80;92.80;;;;;;4901166;29;20618;-76
2021/04/22 06:30:42;;;;;;;1.00;1.00;;;6.60;92.70;;;;;;4899546;29;20263;-76
2021/04/22 06:33:09;;;;;;;1.03;1.03;;;6.70;92.90;;;;;;4900195;29;20246;-76
2021/04/22 06:35:39;;;;;;;1.10;1.10;;;6.70;92.80;;;;;;4899523;29;20211;-75
2021/04/22 06:38:06;;;;;;;1.00;1.00;;;6.80;91.90;;;;;;4897890;29;20199;-75
2021/04/22 06:40:33;;;;;;;1.00;1.00;;;7.20;95.50;;;;;;4899015;29;20227;-74
2021/04/22 06:43:05;;;;;;;0.80;0.80;;;7.40;96.90;;;;;;4899159;29;20811;-75
2021/04/22 06:45:37;;;;;;;1.00;1.00;;;7.20;91.10;;;;;;4899796;29;20207;-75
2021/04/22 06:48:05;;;;;;;0.97;0.97;;;7.20;96.20;;;;;;4881565;29;20211;-76
2021/04/22 06:50:32;;;;;;;0.93;0.93;;;7.40;96.30;;;;;;4885025;29;20223;-76
2021/04/22 06:52:59;;;;;;;1.00;1.00;;;7.70;90.50;;;;;;4901849;29;20196;-77
2021/04/22 06:55:27;;;;;;;0.90;0.90;;;7.70;90.30;;;;;;4906494;29;20209;-77
2021/04/22 06:57:57;;;;;;;0.90;0.90;;;7.60;90.30;;;;;;4905182;29;20233;-77
2021/04/22 07:00:26;;;;;;;0.90;0.90;;;7.60;90.20;;;;;;4901357;29;20204;-76
2021/04/22 07:02:54;;;;;;;0.90;0.90;;;7.30;90.40;;;;;;4901051;29;20246;-77
2021/04/22 07:05:21;;;;;;;1.10;1.10;;;7.60;91.00;;;;;;4901419;29;20258;-77
2021/04/22 07:07:48;;;;;;;0.97;0.97;;;7.40;90.20;;;;;;4899630;29;20199;-77
2021/04/22 07:10:16;;;;;;;0.97;0.97;;;7.40;90.30;;;;;;4900150;29;20259;-77
2021/04/22 07:12:43;;;;;;;0.90;0.90;;;7.40;90.70;;;;;;4901396;29;20705;-77
2021/04/22 07:15:11;;;;;;;1.03;1.03;;;7.70;90.40;;;;;;4902952;29;20744;-78
2021/04/22 07:17:38;;;;;;;1.00;1.00;;;7.80;90.40;;;;;;4902084;29;20220;-75
2021/04/22 07:20:10;;;;;;;0.90;0.90;;;7.70;90.00;;;;;;4901744;29;20711;-76
2021/04/22 07:22:51;;;;;;;1.10;1.10;;;7.80;90.20;;;;;;4903980;29;20219;-78
2021/04/22 07:25:19;;;;;;;1.00;1.00;;;7.70;88.80;;;;;;4903598;29;20211;-76
2021/04/22 07:27:45;;;;;;;1.00;1.00;;;7.60;89.60;;;;;;4903039;29;20203;-77
2021/04/22 07:30:13;;;;;;;1.00;1.00;;;7.60;99.90;;;;;;4902497;29;20632;-77
2021/04/22 07:32:40;;;;;;;1.00;1.00;;;7.80;89.50;;;;;;4902020;29;20204;-76
2021/04/22 07:35:10;;;;;;;1.00;1.00;;;7.70;89.00;;;;;;4902501;29;20246;-78
2021/04/22 07:37:40;;;;;;;0.97;0.97;;;7.60;92.50;;;;;;4899904;29;20211;-77
2021/04/22 07:40:09;;;;;;;1.13;1.13;;;8.10;96.30;;;;;;4900046;29;20211;-77
2021/04/22 07:42:36;;;;;;;0.90;0.90;;;7.70;87.20;;;;;;4900712;29;20232;-79
2021/04/22 07:45:04;;;;;;;1.00;1.00;;;7.60;86.90;;;;;;4901164;29;20263;-78
2021/04/22 07:47:31;;;;;;;0.90;0.90;;;7.70;87.80;;;;;;4902483;29;20214;-78
2021/04/22 07:49:58;;;;;;;1.00;1.00;;;7.80;87.30;;;;;;4901931;29;20218;-77
2021/04/22 07:52:26;;;;;;;1.00;1.00;;;8.00;94.80;;;;;;4901443;29;20247;-77
2021/04/22 07:54:53;;;;;;;0.90;0.90;;;8.00;87.60;;;;;;4899563;29;20570;-77
2021/04/22 07:57:20;;;;;;;0.90;0.90;;;7.80;85.70;;;;;;4899622;29;20206;-78
2021/04/22 07:59:47;;;;;;;0.70;0.70;;;8.20;85.60;;;;;;4899408;29;20259;-76
2021/04/22 08:02:34;;;;;;;0.97;0.97;;;8.30;85.40;;;;;;4898960;29;20262;-78
2021/04/22 08:05:01;;;;;;;0.90;0.90;;;8.00;85.40;;;;;;4898810;29;20207;-78
2021/04/22 08:07:29;;;;;;;1.00;1.00;;;7.90;86.10;;;;;;4900089;29;20583;-78
2021/04/22 08:09:56;;;;;;;0.80;0.80;;;7.70;86.20;;;;;;4896758;29;20199;-78
2021/04/22 08:12:23;;;;;;;0.90;0.90;;;7.70;87.40;;;;;;4902808;29;20234;-79
2021/04/22 08:14:52;;;;;;;1.00;1.00;;;7.70;86.80;;;;;;4904245;29;20195;-78
2021/04/22 08:17:19;;;;;;;1.00;1.00;;;7.70;88.80;;;;;;4906492;29;20203;-78
2021/04/22 08:19:46;;;;;;;1.00;1.00;;;7.90;89.10;;;;;;4908630;29;20195;-79
2021/04/22 08:22:13;;;;;;;1.07;1.07;;;8.00;87.00;;;;;;4910612;29;20283;-78
2021/04/22 08:24:41;;;;;;;1.00;1.00;;;7.70;87.70;;;;;;4906229;29;20195;-77
2021/04/22 08:27:08;;;;;;;1.00;1.00;;;7.80;87.80;;;;;;4908973;29;20208;-76
2021/04/22 08:29:35;;;;;;;0.90;0.90;;;7.80;88.50;;;;;;4911403;29;20207;-76
2021/04/22 08:32:02;;;;;;;0.97;0.97;;;8.00;88.70;;;;;;4908143;29;20231;-77
2021/04/22 08:34:28;;;;;;;1.00;1.00;;;7.90;87.50;;;;;;4906113;29;20695;-77
2021/04/22 08:36:55;;;;;;;1.10;1.10;;;8.00;87.00;;;;;;4912342;29;20203;-77
2021/04/22 08:39:22;;;;;;;0.80;0.80;;;7.90;86.60;;;;;;4910718;29;20207;-76
2021/04/22 08:41:50;;;;;;;0.90;0.90;;;8.10;86.00;;;;;;4906297;29;20335;-77
2021/04/22 08:44:17;;;;;;;0.90;0.90;;;8.30;84.40;;;;;;4907190;29;20207;-77
2021/04/22 08:46:44;;;;;;;0.80;0.80;;;8.60;83.10;;;;;;4911689;29;20203;-78
2021/04/22 08:49:11;;;;;;;0.80;0.80;;;8.70;83.50;;;;;;4913497;29;20211;-77
2021/04/22 08:51:38;;;;;;;0.80;0.80;;;9.00;99.10;;;;;;4910335;29;20235;-76
2021/04/22 08:54:06;;;;;;;1.00;1.00;;;9.00;82.00;;;;;;4905966;29;20230;-78
2021/04/22 08:56:34;;;;;;;0.90;0.90;;;8.90;82.60;;;;;;4905753;29;20219;-77
2021/04/22 08:59:02;;;;;;;0.80;0.80;;;8.70;81.60;;;;;;4904395;29;20210;-77
2021/04/22 09:01:31;;;;;;;0.90;0.90;;;8.70;82.30;;;;;;4905657;29;20634;-77
2021/04/22 09:04:00;;;;;;;0.90;0.90;;;8.60;82.00;;;;;;4907486;29;20203;-76
2021/04/22 09:06:28;;;;;;;0.90;0.90;;;8.50;82.70;;;;;;4907678;29;20259;-76
2021/04/22 09:08:55;;;;;;;0.70;0.70;;;8.70;82.80;;;;;;4902745;29;20207;-77
2021/04/22 09:11:24;;;;;;;1.00;1.00;;;8.80;84.40;;;;;;4904157;29;20245;-77
2021/04/22 09:13:52;;;;;;;0.90;0.90;;;8.70;83.30;;;;;;4903085;29;20203;-76
2021/04/22 09:16:22;;;;;;;0.90;0.90;;;8.80;83.50;;;;;;4902856;29;20235;-77
2021/04/22 09:18:51;;;;;;;0.90;0.90;;;8.80;82.20;;;;;;4902968;29;20207;-77
2021/04/22 09:21:20;;;;;;;1.00;1.00;;;8.90;80.60;;;;;;4901406;29;20713;-77
2021/04/22 09:24:00;;;;;;;0.90;0.90;;;9.20;80.80;;;;;;4903779;29;20227;-77
2021/04/22 09:26:38;;;;;;;0.80;0.80;;;9.00;78.60;;;;;;4902710;29;20672;-77
2021/04/22 09:29:07;;;;;;;0.93;0.93;;;9.00;78.90;;;;;;4904961;29;20720;-76
2021/04/22 09:31:35;;;;;;;0.80;0.80;;;9.10;79.40;;;;;;4907353;29;20250;-77
2021/04/22 09:34:06;;;;;;;0.80;0.80;;;9.00;78.30;;;;;;4910016;29;20804;-77
2021/04/22 09:36:43;;;;;;;0.90;0.90;;;9.00;78.80;;;;;;4907586;29;20267;-76
2021/04/22 09:39:10;;;;;;;0.80;0.80;;;9.00;79.30;;;;;;4912854;29;20684;-77
2021/04/22 09:41:37;;;;;;;0.90;0.90;;;9.10;77.90;;;;;;4912810;29;20223;-77
2021/04/22 09:44:06;;;;;;;0.80;0.80;;;9.30;77.10;;;;;;4908663;29;20236;-77
2021/04/22 09:46:35;;;;;;;0.80;0.80;;;9.30;76.10;;;;;;4911909;29;20244;-77
2021/04/22 09:49:08;;;;;;;0.73;0.73;;;9.20;77.20;;;;;;4889686;29;20208;-78
2021/04/22 09:51:37;;;;;;;0.73;0.73;;;9.50;76.20;;;;;;4887708;29;20232;-78
2021/04/22 09:54:07;;;;;;;0.80;0.80;;;9.20;77.60;;;;;;4903121;29;20580;-80
2021/04/22 09:56:49;;;;;;;0.80;0.80;;;9.30;77.30;;;;;;4902659;29;20265;-77
2021/04/22 09:59:21;;;;;;;0.90;0.90;;;9.40;76.20;;;;;;4902851;29;20197;-77
2021/04/22 10:02:01;;;;;;;1.00;1.00;;;9.30;76.70;;;;;;4901412;29;20227;-78
2021/04/22 10:04:32;;;;;;;0.80;0.80;;;9.40;76.80;;;;;;4906790;29;20203;-79
2021/04/22 10:07:00;;;;;;;0.90;0.90;;;9.40;74.90;;;;;;4906643;29;20192;-79
2021/04/22 10:09:31;;;;;;;0.90;0.90;;;9.50;75.30;;;;;;4907693;29;20207;-78
2021/04/22 10:11:58;;;;;;;0.90;0.90;;;9.50;75.30;;;;;;4904361;29;20779;-80
2021/04/22 10:14:30;;;;;;;1.07;1.07;;;9.30;74.60;;;;;;4900444;29;20207;-79
2021/04/22 10:16:59;;;;;;;0.80;0.80;;;9.10;73.40;;;;;;4900772;29;20345;-77
2021/04/22 10:19:26;;;;;;;0.90;0.90;;;9.50;72.40;;;;;;4901111;29;20211;-78
2021/04/22 10:21:53;;;;;;;0.90;0.90;;;9.90;72.90;;;;;;4900624;29;20231;-78
2021/04/22 10:24:24;;;;;;;0.80;0.80;;;10.10;72.30;;;;;;4901143;29;20211;-79
2021/04/22 10:27:00;;;;;;;0.80;0.80;;;9.70;70.90;;;;;;4902745;29;20203;-78
2021/04/22 10:29:27;;;;;;;1.00;1.00;;;9.40;72.10;;;;;;4903450;29;20212;-77
2021/04/22 10:31:55;;;;;;;0.70;0.70;;;9.50;72.10;;;;;;4901707;29;20231;-77
2021/04/22 10:34:29;;;;;;;0.80;0.80;;;9.50;72.90;;;;;;4901414;29;20227;-78
2021/04/22 10:36:57;;;;;;;0.80;0.80;;;9.60;73.30;;;;;;4901435;29;20251;-77
2021/04/22 10:39:24;;;;;;;0.80;0.80;;;9.50;73.70;;;;;;4900155;29;20206;-79
2021/04/22 10:41:53;;;;;;;0.80;0.80;;;9.50;74.80;;;;;;4899709;29;20303;-77
2021/04/22 10:44:22;;;;;;;0.87;0.87;;;9.50;74.80;;;;;;4895883;29;20207;-77
2021/04/22 10:46:50;;;;;;;0.73;0.73;;;9.80;73.00;;;;;;4912865;29;20234;-76
2021/04/22 10:49:17;;;;;;;0.90;0.90;;;9.90;72.80;;;;;;4902697;29;20214;-78
2021/04/22 10:51:45;;;;;;;0.73;0.73;;;9.90;72.70;;;;;;4901309;29;20280;-79
2021/04/22 10:54:12;;;;;;;0.85;0.85;;;9.80;73.80;;;;;;4901249;29;20207;-78
2021/04/22 10:56:39;;;;;;;1.00;1.00;;;9.70;73.70;;;;;;4900794;29;20203;-78
2021/04/22 10:59:19;;;;;;;0.90;0.90;;;9.60;74.00;;;;;;4901517;29;20687;-78
2021/04/22 11:01:46;;;;;;;0.83;0.83;;;9.60;73.50;;;;;;4899006;29;20804;-78
2021/04/22 11:04:13;;;;;;;0.97;0.97;;;9.60;74.00;;;;;;4899988;29;20253;-78
2021/04/22 11:06:42;;;;;;;0.90;0.90;;;9.50;74.40;;;;;;4897245;29;21302;-77
2021/04/22 11:09:15;;;;;;;0.80;0.80;;;9.80;74.40;;;;;;4900016;29;20665;-77
2021/04/22 11:11:57;;;;;;;0.90;0.90;;;10.00;73.00;;;;;;4900274;29;20239;-77
2021/04/22 11:14:35;;;;;;;0.90;0.90;;;10.00;72.90;;;;;;4900959;29;20199;-77
2021/04/22 11:17:03;;;;;;;0.80;0.80;;;9.90;72.80;;;;;;4899844;29;20207;-78
2021/04/22 11:19:34;;;;;;;0.90;0.90;;;9.70;72.10;;;;;;4902950;29;20214;-75
2021/04/22 11:22:10;;;;;;;0.80;0.80;;;9.70;71.30;;;;;;4905115;29;20223;-78
2021/04/22 11:24:42;;;;;;;0.80;0.80;;;9.90;71.00;;;;;;4896973;29;20665;-78
2021/04/22 11:27:11;;;;;;;0.80;0.80;;;10.10;70.90;;;;;;4903869;29;20207;-77
2021/04/22 11:29:41;;;;;;;0.95;0.95;;;9.90;71.20;;;;;;4907252;29;20229;-77
2021/04/22 11:32:23;;;;;;;0.77;0.77;;;9.80;72.00;;;;;;4904141;29;20248;-76
2021/04/22 11:34:51;;;;;;;0.80;0.80;;;10.20;72.00;;;;;;4903528;29;20401;-78
2021/04/22 11:37:21;;;;;;;0.80;0.80;;;10.40;71.00;;;;;;4905456;29;20733;-79
2021/04/22 11:39:49;;;;;;;0.80;0.80;;;10.30;69.80;;;;;;4905325;29;20195;-78
2021/04/22 11:42:16;;;;;;;0.70;0.70;;;10.20;70.40;;;;;;4903298;29;20255;-79
2021/04/22 11:44:50;;;;;;;0.70;0.70;;;10.60;69.90;;;;;;4904266;29;20251;-78
2021/04/22 11:47:20;;;;;;;0.80;0.80;;;10.70;70.20;;;;;;4903790;29;20255;-76
2021/04/22 11:49:49;;;;;;;0.70;0.70;;;11.00;68.10;;;;;;4904512;29;20275;-77
2021/04/22 11:52:19;;;;;;;0.77;0.77;;;10.90;68.50;;;;;;4909992;29;20227;-77
2021/04/22 11:54:46;;;;;;;0.80;0.80;;;10.80;68.90;;;;;;4906103;29;20199;-77
2021/04/22 11:57:15;;;;;;;0.80;0.80;;;10.70;68.40;;;;;;4893296;29;20240;-76
2021/04/22 11:59:42;;;;;;;0.90;0.90;;;10.60;68.90;;;;;;4897034;29;20203;-76
2021/04/22 12:02:11;;;;;;;0.70;0.70;;;10.40;69.40;;;;;;4898079;29;20654;-77
2021/04/22 12:04:43;;;;;;;0.70;0.70;;;10.20;70.00;;;;;;4897968;29;20206;-77
2021/04/22 12:07:13;;;;;;;0.70;0.70;;;10.10;70.50;;;;;;4903012;29;20211;-77
2021/04/22 12:09:43;;;;;;;0.70;0.70;;;10.10;70.50;;;;;;4900635;29;20267;-77
2021/04/22 12:12:16;;;;;;;0.80;0.80;;;10.40;70.00;;;;;;4897629;29;20287;-77
2021/04/22 12:14:46;;;;;;;0.80;0.80;;;10.40;69.20;;;;;;4898250;29;20251;-77
2021/04/22 12:17:24;;;;;;;0.90;0.90;;;10.30;70.20;;;;;;4897930;29;20211;-77
2021/04/22 12:19:52;;;;;;;0.70;0.70;;;10.20;71.10;;;;;;4897139;29;20207;-80
2021/04/22 12:22:35;;;;;;;0.70;0.70;;;10.20;71.60;;;;;;4898953;29;20227;-77
2021/04/22 12:25:08;;;;;;;0.80;0.80;;;10.40;71.10;;;;;;4900279;29;20218;-80
2021/04/22 12:27:37;;;;;;;0.80;0.80;;;10.40;71.10;;;;;;4900189;29;20264;-79
2021/04/22 12:30:17;;;;;;;0.70;0.70;;;10.20;71.80;;;;;;4898448;29;20263;-80
2021/04/22 12:32:56;;;;;;;0.77;0.77;;;10.20;70.20;;;;;;4895330;29;20199;-80
2021/04/22 12:35:25;;;;;;;0.60;0.60;;;10.40;70.30;;;;;;4895647;29;20608;-77
2021/04/22 12:37:53;;;;;;;0.90;0.90;;;10.50;70.50;;;;;;4898460;29;20736;-77
2021/04/22 12:40:21;;;;;;;0.90;0.90;;;11.10;91.40;;;;;;4897249;29;20199;-77
2021/04/22 12:42:48;;;;;;;0.80;0.80;;;10.80;68.30;;;;;;4897784;29;20226;-80
2021/04/22 12:45:20;;;;;;;0.90;0.90;;;10.50;68.70;;;;;;4897914;29;20278;-80
2021/04/22 12:47:50;;;;;;;0.80;0.80;;;10.60;69.40;;;;;;4898231;29;20306;-78
2021/04/22 12:50:31;;;;;;;0.73;0.73;;;10.90;91.20;;;;;;4895918;29;20668;-78
2021/04/22 12:53:05;;;;;;;0.70;0.70;;;10.90;67.80;;;;;;4897452;29;20274;-80
2021/04/22 12:55:34;;;;;;;0.80;0.80;;;10.80;68.40;;;;;;4901560;29;20211;-80
2021/04/22 12:58:05;;;;;;;0.73;0.73;;;11.30;69.30;;;;;;4901042;29;20195;-79
2021/04/22 13:00:34;;;;;;;0.80;0.80;;;11.40;69.00;;;;;;4892662;29;20302;-77
2021/04/22 13:03:14;;;;;;;0.73;0.73;;;11.30;68.40;;;;;;4896679;29;20223;-77
2021/04/22 13:05:43;;;;;;;0.80;0.80;;;11.60;68.80;;;;;;4899200;29;20267;-77
2021/04/22 13:08:11;;;;;;;0.80;0.80;;;11.50;66.50;;;;;;4898876;29;20243;-77
2021/04/22 13:10:40;;;;;;;0.88;0.88;;;11.40;66.40;;;;;;4897155;29;20752;-77
2021/04/22 13:13:10;;;;;;;0.70;0.70;;;11.60;65.70;;;;;;4898562;29;20202;-77
2021/04/22 13:15:37;;;;;;;0.70;0.70;;;11.80;66.50;;;;;;4897109;29;20613;-77
2021/04/22 13:18:07;;;;;;;0.80;0.80;;;11.80;65.10;;;;;;4898868;29;20210;-76
2021/04/22 13:20:43;;;;;;;0.70;0.70;;;11.50;65.30;;;;;;4899187;29;20275;-78
2021/04/22 13:23:12;;;;;;;0.70;0.70;;;12.10;65.20;;;;;;4900248;29;20311;-79
2021/04/22 13:25:42;;;;;;;0.70;0.70;;;12.00;64.60;;;;;;4900054;29;20203;-79
2021/04/22 13:28:15;;;;;;;0.75;0.75;;;12.40;66.30;;;;;;4902308;29;20211;-79
2021/04/22 13:30:45;;;;;;;0.70;0.70;;;12.50;65.30;;;;;;4903846;29;20291;-77
2021/04/22 13:33:14;;;;;;;0.73;0.73;;;12.30;64.50;;;;;;4896482;29;20215;-77
2021/04/22 13:35:42;;;;;;;0.70;0.70;;;11.90;66.40;;;;;;4897322;29;20215;-76
2021/04/22 13:38:17;;;;;;;0.70;0.70;;;11.50;65.50;;;;;;4896748;29;20669;-76
2021/04/22 13:40:45;;;;;;;0.80;0.80;;;11.40;68.10;;;;;;4896616;29;20287;-75
2021/04/22 13:43:12;;;;;;;0.50;0.50;;;11.20;68.70;;;;;;4895025;29;20224;-75
2021/04/22 13:45:40;;;;;;;0.82;0.82;;;11.30;69.70;;;;;;4894322;29;20218;-75
2021/04/22 13:48:08;;;;;;;0.70;0.70;;;11.60;69.60;;;;;;4897560;29;20262;-75
2021/04/22 13:50:36;;;;;;;0.70;0.70;;;11.90;68.90;;;;;;4897996;29;20599;-75
2021/04/22 13:53:04;;;;;;;0.88;0.88;;;11.90;69.10;;;;;;4898114;29;20287;-76
2021/04/22 13:55:49;;;;;;;0.70;0.70;;;11.80;68.00;;;;;;4897853;29;20203;-76
2021/04/22 13:58:30;;;;;;;0.90;0.90;;;11.60;67.60;;;;;;4899648;29;20210;-75
2021/04/22 14:00:57;;;;;;;0.77;0.77;;;11.50;69.30;;;;;;4900344;29;20287;-76
2021/04/22 14:03:34;;;;;;;0.70;0.70;;;11.90;68.00;;;;;;4901254;29;20708;-76
2021/04/22 14:06:02;;;;;;;0.60;0.60;;;12.10;65.00;;;;;;4903753;29;20278;-79
2021/04/22 14:08:30;;;;;;;0.73;0.73;;;12.00;66.30;;;;;;4903136;29;20263;-78
2021/04/22 14:11:00;;;;;;;0.70;0.70;;;12.00;65.40;;;;;;4902377;29;20239;-77
2021/04/22 14:13:30;;;;;;;0.70;0.70;;;12.00;66.80;;;;;;4902353;29;20207;-79
2021/04/22 14:15:57;;;;;;;0.90;0.90;;;12.00;67.30;;;;;;4900013;29;20196;-77
2021/04/22 14:18:24;;;;;;;0.60;0.60;;;12.20;67.00;;;;;;4900171;29;20248;-75
2021/04/22 14:20:51;;;;;;;0.60;0.60;;;12.60;64.00;;;;;;4899963;29;20765;-75
2021/04/22 14:23:18;;;;;;;0.65;0.65;;;12.60;62.70;;;;;;4897506;29;20227;-74
2021/04/22 14:25:45;;;;;;;0.80;0.80;;;12.70;63.60;;;;;;4899542;29;20202;-75
2021/04/22 14:28:12;;;;;;;0.70;0.70;;;12.40;63.90;;;;;;4899490;29;20200;-78
2021/04/22 14:30:39;;;;;;;0.70;0.70;;;12.60;63.10;;;;;;4898927;29;20234;-77
2021/04/22 14:33:06;;;;;;;0.70;0.70;;;12.30;63.80;;;;;;4898947;29;20195;-76
2021/04/22 14:35:33;;;;;;;0.60;0.60;;;12.00;64.50;;;;;;4893804;29;20263;-76
2021/04/22 14:38:01;;;;;;;0.70;0.70;;;11.80;65.40;;;;;;4896998;29;20214;-77
2021/04/22 14:40:37;;;;;;;0.80;0.80;;;11.50;66.20;;;;;;4897952;29;20233;-76
2021/04/22 14:43:07;;;;;;;0.70;0.70;;;11.30;67.70;;;;;;4897769;29;20299;-76
2021/04/22 14:45:34;;;;;;;0.70;0.70;;;11.40;69.10;;;;;;4898493;29;20188;-76
2021/04/22 14:48:02;;;;;;;0.70;0.70;;;11.30;68.90;;;;;;4898541;29;20244;-76
2021/04/22 14:50:29;;;;;;;1.00;1.00;;;11.50;86.50;;;;;;4897773;29;20206;-76
2021/04/22 14:52:56;;;;;;;0.60;0.60;;;11.60;67.80;;;;;;4898138;29;20217;-76
2021/04/22 14:55:23;;;;;;;0.57;0.57;;;12.60;66.80;;;;;;4898322;29;20278;-77
2021/04/22 14:57:50;;;;;;;0.60;0.60;;;12.80;65.00;;;;;;4897436;29;20712;-77
2021/04/22 15:00:19;;;;;;;0.70;0.70;;;13.30;64.30;;;;;;4898828;29;20214;-77
2021/04/22 15:02:46;;;;;;;0.70;0.70;;;12.90;65.00;;;;;;4898343;29;20206;-78
2021/04/22 15:05:14;;;;;;;0.60;0.60;;;12.70;65.40;;;;;;4898246;29;20216;-77
2021/04/22 15:07:41;;;;;;;0.70;0.70;;;12.80;65.60;;;;;;4898946;29;20271;-77
2021/04/22 15:10:09;;;;;;;0.60;0.60;;;12.40;66.20;;;;;;4899075;29;20677;-76
2021/04/22 15:12:36;;;;;;;0.70;0.70;;;12.30;66.20;;;;;;4898285;29;20203;-77
2021/04/22 15:15:06;;;;;;;0.70;0.70;;;12.70;66.20;;;;;;4898687;29;20203;-78
2021/04/22 15:17:33;;;;;;;0.70;0.70;;;12.50;65.00;;;;;;4896712;29;20255;-77
2021/04/22 15:20:01;;;;;;;0.70;0.70;;;12.30;66.50;;;;;;4897916;29;20207;-77
2021/04/22 15:22:31;;;;;;;0.60;0.60;;;12.10;67.30;;;;;;4899201;29;20215;-78
2021/04/22 15:25:14;;;;;;;0.70;0.70;;;11.70;67.40;;;;;;4895657;29;20743;-77
2021/04/22 15:27:41;;;;;;;0.70;0.70;;;11.50;69.10;;;;;;4896813;29;20605;-77
2021/04/22 15:30:12;;;;;;;0.60;0.60;;;11.40;69.50;;;;;;4898560;29;20204;-75
2021/04/22 15:32:41;;;;;;;0.70;0.70;;;11.50;70.00;;;;;;4897922;29;20199;-76
2021/04/22 15:35:12;;;;;;;0.70;0.70;;;11.60;70.80;;;;;;4899800;29;20744;-76
2021/04/22 15:37:40;;;;;;;0.70;0.70;;;11.40;70.90;;;;;;4899969;29;20744;-77
2021/04/22 15:40:09;;;;;;;0.73;0.73;;;11.30;70.90;;;;;;4901883;29;20208;-76
2021/04/22 15:42:36;;;;;;;0.60;0.60;;;11.30;70.80;;;;;;4899747;29;20227;-77
2021/04/22 15:45:05;;;;;;;0.77;0.77;;;10.90;69.60;;;;;;4898786;29;20211;-78
2021/04/22 15:47:32;;;;;;;0.70;0.70;;;10.90;70.20;;;;;;4899272;29;20214;-76
2021/04/22 15:49:59;;;;;;;0.70;0.70;;;11.00;70.70;;;;;;4899716;29;20203;-76
2021/04/22 15:52:27;;;;;;;0.70;0.70;;;11.00;69.30;;;;;;4898532;29;20728;-76
2021/04/22 15:54:57;;;;;;;0.60;0.60;;;11.10;69.40;;;;;;4899842;29;20204;-76
2021/04/22 15:57:24;;;;;;;0.75;0.75;;;11.10;69.40;;;;;;4900630;29;20243;-77
2021/04/22 15:59:51;;;;;;;0.70;0.70;;;;;;;;;;4901289;29;20203;-78
2021/04/22 16:02:18;;;;;;;0.77;0.77;;;11.00;68.70;;;;;;4900795;29;20641;-77
2021/04/22 16:04:46;;;;;;;0.50;0.50;;;10.90;69.30;;;;;;4902122;29;20238;-80
2021/04/22 16:07:13;;;;;;;0.80;0.80;;;10.90;69.30;;;;;;4907478;29;20211;-79
2021/04/22 16:09:40;;;;;;;0.80;0.80;;;10.90;69.60;;;;;;4909842;29;20263;-79
2021/04/22 16:12:08;;;;;;;0.80;0.80;;;10.80;69.90;;;;;;4904726;29;20246;-79
2021/04/22 16:14:52;;;;;;;0.70;0.70;;;10.60;90.80;;;;;;4902900;29;20199;-78
2021/04/22 16:17:18;;;;;;;0.80;0.80;;;10.70;71.10;;;;;;4899832;29;20215;-79
2021/04/22 16:19:45;;;;;;;0.90;0.90;;;10.70;71.50;;;;;;4900619;29;20730;-77
2021/04/22 16:22:14;;;;;;;0.93;0.93;;;10.80;71.80;;;;;;4901633;29;20285;-78
2021/04/22 16:24:41;;;;;;;0.85;0.85;;;10.80;71.80;;;;;;4959461;23;20269;-81
2021/04/22 16:27:09;;;;;;;0.70;0.70;;;10.80;72.10;;;;;;4956230;29;20674;-80
2021/04/22 16:29:36;;;;;;;0.70;0.70;;;10.70;71.70;;;;;;4955826;29;20213;-78
2021/04/22 16:32:03;;;;;;;0.70;0.70;;;10.70;72.80;;;;;;4962987;29;20213;-79
2021/04/22 16:34:30;;;;;;;0.80;0.80;;;10.80;72.70;;;;;;4946445;29;20229;-78
2021/04/22 16:36:57;;;;;;;0.63;0.63;;;10.60;73.60;;;;;;4932615;29;20206;-76
2021/04/22 16:39:25;;;;;;;0.70;0.70;;;10.70;73.70;;;;;;4939956;29;20222;-76
2021/04/22 16:41:53;;;;;;;0.70;0.70;;;10.60;73.60;;;;;;4940142;29;20199;-78
2021/04/22 16:44:21;;;;;;;0.70;0.70;;;10.50;73.30;;;;;;4932735;29;20230;-78
2021/04/22 16:46:48;;;;;;;0.80;0.80;;;10.50;74.20;;;;;;4941015;29;20257;-79
2021/04/22 16:49:15;;;;;;;0.70;0.70;;;10.40;74.10;;;;;;4942748;29;20206;-80
2021/04/22 16:51:43;;;;;;;0.80;0.80;;;10.40;74.90;;;;;;4943578;29;20560;-80
2021/04/22 16:54:11;;;;;;;0.70;0.70;;;10.50;75.90;;;;;;4939403;29;20240;-78
2021/04/22 16:56:38;;;;;;;0.80;0.80;;;10.40;74.60;;;;;;4937935;29;20206;-82
2021/04/22 16:59:07;;;;;;;0.70;0.70;;;10.30;74.90;;;;;;4937724;29;20253;-78
2021/04/22 17:01:37;;;;;;;0.65;0.65;;;10.30;75.40;;;;;;4933802;29;20208;-80
2021/04/22 17:04:05;;;;;;;0.80;0.80;;;10.30;78.60;;;;;;4937224;29;20229;-79
2021/04/22 17:06:36;;;;;;;0.70;0.70;;;10.40;81.20;;;;;;4938280;29;20204;-80
2021/04/22 17:09:04;;;;;;;0.70;0.70;;;10.50;80.50;;;;;;4937415;29;20194;-80
2021/04/22 17:11:31;;;;;;;0.80;0.80;;;10.20;79.70;;;;;;4936891;29;20663;-79
2021/04/22 17:13:58;;;;;;;0.80;0.80;;;10.10;80.90;;;;;;4937934;29;20218;-78